Time;durP1;ratioP1;P1;durP2;ratioP2;P2;SDS_P1;SDS_P2;PMS_P1;PMS_P2;Temp;Humidity;BMP_temperature;BMP_pressure;BME280_temperature;BME280_humidity;BME280_pressure;Samples;Min_cycle;Max_cycle;Signal;HPM_P1;HPM_P2
2023/12/21 05:20:53;;;;;;;1.00;0.80;;;;;;;5.70;100.00;98672.38;6323871;22;20026;-91
2023/12/21 05:23:21;;;;;;;1.37;1.10;;;;;;;5.87;100.00;98677.94;6225519;22;20086;-92
2023/12/21 05:25:48;;;;;;;1.90;1.30;;;;;;;5.93;100.00;98675.16;6226184;22;20090;-91
2023/12/21 05:28:15;;;;;;;1.60;1.00;;;;;;;5.97;100.00;98669.78;6225408;22;20395;-92
2023/12/21 05:30:43;;;;;;;2.20;1.20;;;;;;;6.03;100.00;98662.59;6249747;22;20105;-91
2023/12/21 05:33:10;;;;;;;3.03;1.37;;;;;;;6.20;100.00;98660.22;6224659;22;20101;-90
2023/12/21 05:35:37;;;;;;;4.43;2.47;;;;;;;6.36;100.00;98652.69;6224970;22;20023;-92
2023/12/21 05:38:05;;;;;;;2.50;1.30;;;;;;;6.30;100.00;98646.81;6225683;22;20126;-91
2023/12/21 05:40:32;;;;;;;2.40;1.37;;;;;;;6.33;100.00;98644.09;6226004;22;20087;-92
2023/12/21 05:43:00;;;;;;;2.60;1.60;;;;;;;6.35;100.00;98645.75;6225636;22;20098;-91
2023/12/21 05:45:27;;;;;;;1.70;1.47;;;;;;;6.45;100.00;98643.63;6249777;22;20141;-91
2023/12/21 05:47:58;;;;;;;2.13;1.40;;;;;;;6.41;100.00;98636.81;6225085;22;20097;-90
2023/12/21 05:50:26;;;;;;;2.60;1.60;;;;;;;6.54;100.00;98632.81;6225690;22;20106;-91
2023/12/21 05:52:53;;;;;;;2.13;1.60;;;;;;;6.60;100.00;98626.50;6252779;22;20091;-91
2023/12/21 05:55:21;;;;;;;3.23;1.43;;;;;;;6.57;100.00;98616.13;6227477;22;20090;-91
2023/12/21 05:57:48;;;;;;;1.90;1.40;;;;;;;6.59;100.00;98619.53;6278251;22;20105;-91
2023/12/21 06:00:16;;;;;;;1.60;1.27;;;;;;;6.64;100.00;98610.59;6227152;22;20110;-91
2023/12/21 06:02:46;;;;;;;1.70;1.20;;;;;;;6.73;100.00;98606.78;6228229;22;20094;-90
2023/12/21 06:05:14;;;;;;;1.27;1.10;;;;;;;6.69;100.00;98598.13;6227221;22;20391;-91
2023/12/21 06:07:41;;;;;;;1.80;1.10;;;;;;;6.74;100.00;98590.09;6226802;22;20161;-91
2023/12/21 06:10:09;;;;;;;1.43;1.00;;;;;;;6.72;100.00;98584.03;6227031;22;20102;-92
2023/12/21 06:12:36;;;;;;;1.93;1.10;;;;;;;6.77;100.00;98582.97;6226972;22;20087;-91
2023/12/21 06:15:04;;;;;;;1.83;1.30;;;;;;;6.80;100.00;98575.88;6252223;22;20102;-92
2023/12/21 06:17:31;;;;;;;2.17;1.43;;;;;;;6.80;100.00;98576.72;6227053;22;20101;-91
2023/12/21 06:19:59;;;;;;;2.37;1.70;;;;;;;6.82;100.00;98564.44;6273455;22;20023;-91
2023/12/21 06:22:27;;;;;;;2.00;1.40;;;;;;;6.85;100.00;98569.53;6227113;22;20082;-91
2023/12/21 06:24:54;;;;;;;1.83;1.33;;;;;;;6.90;100.00;98549.22;6226826;22;20102;-90
2023/12/21 06:27:22;;;;;;;2.90;1.80;;;;;;;6.88;100.00;98561.53;6227198;22;20491;-90
2023/12/21 06:29:49;;;;;;;2.47;1.60;;;;;;;6.93;100.00;98548.25;6226332;22;20148;-91
2023/12/21 06:32:19;;;;;;;3.27;1.70;;;;;;;6.87;100.00;98549.34;6228170;22;20094;-92
2023/12/21 06:34:47;;;;;;;1.67;1.50;;;;;;;6.84;100.00;98541.59;6226615;22;20026;-91
2023/12/21 06:37:14;;;;;;;2.23;1.67;;;;;;;6.89;100.00;98537.00;6226569;22;20101;-90
2023/12/21 06:39:42;;;;;;;2.57;1.53;;;;;;;6.94;100.00;98515.81;6251883;22;20099;-91
2023/12/21 06:42:09;;;;;;;1.53;1.30;;;;;;;6.91;100.00;98511.56;6227054;22;20070;-91
2023/12/21 06:44:37;;;;;;;1.43;1.00;;;;;;;6.82;100.00;98500.59;6251758;22;20397;-91
2023/12/21 06:47:04;;;;;;;1.67;1.30;;;;;;;6.89;100.00;98502.03;6227501;22;20517;-91
2023/12/21 06:49:34;;;;;;;2.03;0.90;;;;;;;6.88;100.00;98490.66;6227522;22;20110;-92
2023/12/21 06:52:02;;;;;;;1.67;1.10;;;;;;;6.99;100.00;98487.63;6226964;22;20086;-93
2023/12/21 06:54:29;;;;;;;1.40;1.00;;;;;;;6.96;100.00;98474.63;6228488;22;20105;-92
2023/12/21 06:56:57;;;;;;;1.20;0.90;;;;;;;6.92;100.00;98476.53;6252598;22;20102;-91
2023/12/21 06:59:24;;;;;;;1.63;1.20;;;;;;;6.95;100.00;98467.66;6252518;22;20526;-90
2023/12/21 07:01:51;;;;;;;1.53;1.00;;;;;;;6.90;100.00;98453.88;6226533;22;20098;-91
2023/12/21 07:04:19;;;;;;;1.40;0.97;;;;;;;6.85;100.00;98446.19;6228419;22;20090;-91
2023/12/21 07:06:50;;;;;;;1.20;0.77;;;;;;;6.91;100.00;98434.59;6252837;22;20090;-91
2023/12/21 07:09:19;;;;;;;0.80;0.70;;;;;;;6.95;100.00;98425.66;6227410;22;20090;-92
2023/12/21 07:11:46;;;;;;;1.77;0.77;;;;;;;6.97;100.00;98419.41;6252527;22;20090;-92
2023/12/21 07:14:15;;;;;;;1.40;0.80;;;;;;;6.93;100.00;98406.50;6215221;22;20090;-91
2023/12/21 07:16:43;;;;;;;0.80;0.77;;;;;;;7.04;100.00;98402.50;6227115;22;20526;-91
2023/12/21 07:19:10;;;;;;;1.20;1.10;;;;;;;7.07;100.00;98406.78;6235692;22;20133;-90
2023/12/21 07:21:37;;;;;;;1.57;1.20;;;;;;;7.07;100.00;98390.19;6235499;22;20074;-92
2023/12/21 07:24:05;;;;;;;1.17;1.00;;;;;;;7.02;100.00;98385.09;6226305;22;20126;-92
2023/12/21 07:26:32;;;;;;;1.17;0.90;;;;;;;7.05;100.00;98363.97;6226338;22;20102;-91
2023/12/21 07:29:02;;;;;;;0.93;0.83;;;;;;;7.05;100.00;98367.44;6227275;22;20098;-91
2023/12/21 07:31:30;;;;;;;1.10;0.90;;;;;;;7.06;100.00;98357.78;6226169;22;20090;-91
2023/12/21 07:33:57;;;;;;;1.00;1.00;;;;;;;7.08;100.00;98345.47;6251954;22;20082;-91
2023/12/21 07:36:24;;;;;;;2.63;1.30;;;;;;;7.12;100.00;98341.78;6251262;22;20098;-93
2023/12/21 07:38:54;;;;;;;1.13;0.93;;;;;;;7.12;100.00;98322.56;6251280;22;20023;-91
2023/12/21 07:41:25;;;;;;;1.23;1.00;;;;;;;7.05;100.00;98308.84;6252217;22;20522;-91
2023/12/21 07:43:55;;;;;;;1.93;1.20;;;;;;;7.01;100.00;98313.38;6226639;22;20098;-91
2023/12/21 07:46:23;;;;;;;1.50;1.10;;;;;;;7.07;100.00;98309.66;6226669;22;20098;-91
2023/12/21 07:48:51;;;;;;;2.10;1.67;;;;;;;7.11;100.00;98287.56;6226319;22;20019;-91
2023/12/21 07:51:18;;;;;;;2.23;1.50;;;;;;;7.12;100.00;98288.41;6226024;22;20109;-90
2023/12/21 07:53:48;;;;;;;1.60;1.30;;;;;;;7.15;100.00;98283.06;6228008;22;20098;-91
2023/12/21 07:56:15;;;;;;;1.60;1.30;;;;;;;7.17;100.00;98271.56;6226292;22;20534;-92
2023/12/21 07:58:43;;;;;;;2.20;1.70;;;;;;;7.10;100.00;98270.13;6227283;22;20026;-90
2023/12/21 08:01:10;;;;;;;1.90;1.50;;;;;;;7.14;100.00;98255.91;6226849;22;20098;-92
2023/12/21 08:03:37;;;;;;;3.37;1.60;;;;;;;7.19;100.00;98243.44;6226672;22;20522;-92
2023/12/21 08:06:05;;;;;;;2.47;1.80;;;;;;;7.21;100.00;98240.75;6229818;22;20019;-90
2023/12/21 08:08:32;;;;;;;2.33;1.90;;;;;;;7.18;100.00;98228.63;6242443;22;20470;-91
2023/12/21 08:11:05;;;;;;;2.20;1.50;;;;;;;7.11;100.00;98228.97;6252621;22;20121;-90
2023/12/21 08:13:32;;;;;;;3.63;1.80;;;;;;;7.19;100.00;98211.09;6251179;22;20066;-91
2023/12/21 08:15:59;;;;;;;2.50;1.70;;;;;;;7.24;100.00;98194.19;6251564;22;20133;-92
2023/12/21 08:18:26;;;;;;;3.13;2.00;;;;;;;7.21;100.00;98193.47;6226552;22;20521;-92
2023/12/21 08:20:54;;;;;;;3.23;2.23;;;;;;;7.17;100.00;98179.66;6226386;22;20099;-91
2023/12/21 08:23:21;;;;;;;3.00;2.10;;;;;;;7.23;100.00;98166.25;6251541;22;20098;-92
2023/12/21 08:25:48;;;;;;;2.17;1.90;;;;;;;7.21;100.00;98172.47;6227599;22;20019;-92
2023/12/21 08:28:17;;;;;;;3.47;1.80;;;;;;;7.17;100.00;98156.00;6227831;22;20026;-91
2023/12/21 08:30:44;;;;;;;3.80;2.23;;;;;;;7.24;100.00;98140.84;6226985;22;20098;-92
2023/12/21 08:33:11;;;;;;;4.63;2.90;;;;;;;7.26;100.00;98142.44;6226210;22;20106;-91
2023/12/21 08:35:39;;;;;;;7.47;5.77;;;;;;;7.26;100.00;98138.97;6225697;22;20110;-91
2023/12/21 08:38:08;;;;;;;3.17;1.87;;;;;;;7.27;100.00;98136.28;6250793;22;20019;-91
2023/12/21 08:40:36;;;;;;;5.73;5.27;;;;;;;7.23;100.00;98111.09;6226070;22;20110;-91
2023/12/21 08:43:03;;;;;;;2.83;2.27;;;;;;;7.24;100.00;98097.03;6225579;22;20098;-92
2023/12/21 08:45:31;;;;;;;2.53;2.00;;;;;;;7.28;100.00;98102.97;6250129;22;20097;-91
2023/12/21 08:47:59;;;;;;;5.93;3.97;;;;;;;7.30;100.00;98099.34;6226019;22;20140;-91
2023/12/21 08:50:26;;;;;;;9.93;6.07;;;;;;;7.28;100.00;98087.22;6226355;22;20101;-91
2023/12/21 08:52:53;;;;;;;6.83;4.40;;;;;;;7.20;100.00;98082.34;6251359;22;20090;-91
2023/12/21 08:55:21;;;;;;;4.30;3.70;;;;;;;7.30;100.00;98077.50;6226056;22;20450;-91
2023/12/21 08:57:48;;;;;;;3.50;2.63;;;;;;;7.30;100.00;98056.47;6225180;22;20106;-92
2023/12/21 09:00:16;;;;;;;4.07;2.87;;;;;;;7.31;100.00;98045.91;6251149;22;20027;-92
2023/12/21 09:02:43;;;;;;;2.97;2.37;;;;;;;7.31;100.00;98052.91;6250212;22;20455;-92
2023/12/21 09:05:14;;;;;;;3.07;2.10;;;;;;;7.30;100.00;98040.72;6225046;22;20096;-92
2023/12/21 09:07:41;;;;;;;2.70;2.30;;;;;;;7.34;100.00;98040.50;6226642;22;20098;-91
2023/12/21 09:10:12;;;;;;;2.83;1.70;;;;;;;7.34;100.00;98043.13;6226179;22;20094;-91
2023/12/21 09:12:39;;;;;;;2.43;2.00;;;;;;;7.31;100.00;98031.91;6225492;22;20102;-91
2023/12/21 09:15:08;;;;;;;3.07;2.03;;;;;;;7.29;100.00;98029.38;6250783;22;20396;-91
2023/12/21 09:17:36;;;;;;;2.33;1.60;;;;;;;7.32;100.00;98005.59;6225831;22;20030;-89
2023/12/21 09:20:08;;;;;;;2.20;1.70;;;;;;;7.28;100.00;98016.31;6226290;22;20518;-92
2023/12/21 09:22:38;;;;;;;2.03;1.70;;;;;;;7.25;100.00;98000.72;6227276;22;20113;-92
2023/12/21 09:25:06;;;;;;;2.63;1.93;;;;;;;7.23;100.00;97995.56;6251023;22;20458;-92
2023/12/21 09:27:34;;;;;;;2.17;1.83;;;;;;;7.24;100.00;97983.28;6228452;22;20089;-92
2023/12/21 09:30:05;;;;;;;2.63;2.10;;;;;;;7.21;100.00;97976.38;6231025;22;20355;-90
2023/12/21 09:32:56;;;;;;;2.43;1.70;;;;;;;7.21;100.00;97965.88;6259146;22;20347;-91
2023/12/21 09:36:19;;;;;;;2.00;1.50;;;;;;;7.19;100.00;97941.47;6288141;22;20521;-90
2023/12/21 09:39:40;;;;;;;2.67;2.10;;;;;;;7.22;100.00;97929.97;6238480;22;20164;-90
2023/12/21 09:43:27;;;;;;;2.03;1.70;;;;;;;7.13;100.00;97923.41;6233445;23;20069;-90
2023/12/21 09:47:05;;;;;;;1.90;1.60;;;;;;;7.18;100.00;97912.69;6208776;23;20454;-91
2023/12/21 09:51:07;;;;;;;1.88;1.40;;;;;;;7.14;100.00;97896.22;6274140;22;20023;-91
2023/12/21 09:54:56;;;;;;;1.93;1.30;;;;;;;7.18;100.00;97883.78;6245558;22;20090;-90
2023/12/21 10:03:13;;;;;;;1.33;1.23;;;;;;;7.18;100.00;97849.66;6248096;23;20023;-90
2023/12/21 10:06:18;;;;;;;2.13;1.30;;;;;;;7.19;100.00;97825.09;6201534;23;20091;-90
2023/12/21 10:09:31;;;;;;;1.50;1.23;;;;;;;7.19;100.00;97814.59;6218703;23;20067;-90
2023/12/21 10:12:30;;;;;;;2.10;1.10;;;;;;;7.20;100.00;97806.63;6284871;22;20019;-91
2023/12/21 10:15:27;;;;;;;4.20;1.10;;;;;;;7.21;100.00;97789.09;6237151;22;20075;-90
2023/12/21 10:18:30;;;;;;;2.27;1.20;;;;;;;7.14;100.00;97772.81;6263683;22;20513;-92
2023/12/21 10:21:12;;;;;;;1.20;1.10;;;;;;;7.23;100.00;97761.84;6234790;22;20090;-89
2023/12/21 10:23:59;;;;;;;1.67;1.13;;;;;;;7.22;100.00;97761.91;6263643;22;20102;-89
2023/12/21 10:26:52;;;;;;;1.17;1.02;;;;;;;7.17;100.00;97749.03;6212638;22;20094;-89
2023/12/21 10:29:49;;;;;;;1.27;1.17;;;;;;;7.17;100.00;97730.66;6267172;22;20094;-88
2023/12/21 10:32:26;;;;;;;1.23;0.98;;;;;;;7.18;100.00;97729.72;6236032;22;20102;-89
2023/12/21 10:35:17;;;;;;;1.10;1.00;;;;;;;7.24;100.00;97711.03;6280957;22;20099;-89
2023/12/21 10:38:04;;;;;;;1.47;0.90;;;;;;;7.17;100.00;97699.16;6237684;22;20016;-89
2023/12/21 10:40:37;;;;;;;1.10;1.00;;;;;;;7.21;100.00;97686.69;6234014;22;20097;-90
2023/12/21 10:43:10;;;;;;;0.97;0.80;;;;;;;7.25;100.00;97680.38;6229374;22;20106;-92
2023/12/21 10:45:37;;;;;;;0.93;0.80;;;;;;;7.26;100.00;97655.81;6226709;22;20098;-92
2023/12/21 10:48:12;;;;;;;1.83;0.83;;;;;;;7.28;100.00;97662.66;6226799;22;20102;-91
2023/12/21 10:50:39;;;;;;;0.67;0.60;;;;;;;7.26;100.00;97656.66;6252543;22;20078;-92
2023/12/21 10:53:09;;;;;;;0.60;0.60;;;;;;;7.29;100.00;97645.13;6251963;22;20109;-90
2023/12/21 10:55:37;;;;;;;0.90;0.57;;;;;;;7.27;100.00;97641.72;6250737;22;20090;-91
2023/12/21 10:58:08;;;;;;;0.70;0.67;;;;;;;7.29;100.00;97629.34;6227023;22;20403;-91
2023/12/21 11:00:39;;;;;;;0.73;0.73;;;;;;;7.33;100.00;97623.88;6251200;22;20078;-91
2023/12/21 11:03:07;;;;;;;0.90;0.73;;;;;;;7.32;100.00;97616.91;6251931;22;20538;-91
2023/12/21 11:05:35;;;;;;;0.60;0.50;;;;;;;7.39;100.00;97593.75;6250916;22;20098;-91
2023/12/21 11:08:03;;;;;;;0.63;0.60;;;;;;;7.39;100.00;97591.13;6226645;22;20450;-91
2023/12/21 11:10:32;;;;;;;0.77;0.57;;;;;;;7.41;100.00;97607.69;6226626;22;20015;-91
2023/12/21 11:13:00;;;;;;;0.57;0.57;;;;;;;7.42;100.00;97588.34;6226218;22;20427;-91
2023/12/21 11:15:27;;;;;;;0.60;0.60;;;;;;;7.39;100.00;97593.75;6225424;22;20462;-91
2023/12/21 11:17:58;;;;;;;0.53;0.53;;;;;;;7.37;100.00;97577.25;6226280;22;20086;-91
2023/12/21 11:20:34;;;;;;;0.50;0.50;;;;;;;7.42;100.00;97559.47;6226476;22;20114;-91
2023/12/21 11:23:13;;;;;;;0.53;0.40;;;;;;;7.42;100.00;97556.00;6231831;22;20110;-91
2023/12/21 11:25:40;;;;;;;0.50;0.50;;;;;;;7.45;100.00;97551.41;6251112;22;20102;-92
2023/12/21 11:28:10;;;;;;;0.60;0.50;;;;;;;7.45;100.00;97535.63;6226747;22;20537;-91
2023/12/21 11:30:38;;;;;;;1.10;0.80;;;;;;;7.47;100.00;97538.16;6226105;22;20352;-91
2023/12/21 11:33:06;;;;;;;3.00;1.10;;;;;;;7.48;100.00;97516.22;6251419;22;20404;-89
2023/12/21 11:35:34;;;;;;;0.83;0.80;;;;;;;7.49;100.00;97510.91;6251774;22;20446;-90
2023/12/21 11:38:06;;;;;;;1.03;0.93;;;;;;;7.49;100.00;97500.41;6226336;22;20455;-91
2023/12/21 11:40:35;;;;;;;0.57;0.53;;;;;;;7.47;100.00;97485.63;6225375;22;20102;-90
2023/12/21 11:43:06;;;;;;;0.90;0.77;;;;;;;7.52;100.00;97480.97;6226750;22;20522;-91
2023/12/21 11:45:37;;;;;;;1.23;1.10;;;;;;;7.53;100.00;97464.28;6225916;22;20102;-91
2023/12/21 11:48:04;;;;;;;3.03;0.90;;;;;;;7.56;100.00;97450.94;6226061;22;20141;-91
2023/12/21 11:50:35;;;;;;;0.80;0.77;;;;;;;7.56;100.00;97443.06;6225867;22;20106;-91
2023/12/21 11:53:07;;;;;;;0.83;0.77;;;;;;;7.53;100.00;97433.59;6251260;22;20105;-90
2023/12/21 11:55:43;;;;;;;2.15;0.80;;;;;;;7.55;100.00;97439.59;6252655;22;20415;-92
2023/12/21 11:58:19;;;;;;;0.97;0.70;;;;;;;7.63;100.00;97428.63;6226792;22;20103;-93
2023/12/21 12:00:55;;;;;;;0.60;0.60;;;;;;;7.59;100.00;97409.59;6225886;22;20094;-90
2023/12/21 12:03:25;;;;;;;0.90;0.80;;;;;;;7.63;100.00;97408.47;6225309;22;20094;-91
2023/12/21 12:05:59;;;;;;;0.77;0.73;;;;;;;7.65;100.00;97397.88;6225565;22;20167;-90
2023/12/21 12:08:27;;;;;;;0.80;0.80;;;;;;;7.63;100.00;97391.84;6225919;22;20098;-90
2023/12/21 12:10:57;;;;;;;0.83;0.60;;;;;;;7.65;100.00;97374.25;6252161;22;20129;-88
2023/12/21 12:13:25;;;;;;;1.43;0.70;;;;;;;7.62;100.00;97375.25;6255046;22;20094;-88
2023/12/21 12:15:53;;;;;;;1.30;0.70;;;;;;;7.61;100.00;97368.31;6229966;22;20098;-88
2023/12/21 12:18:23;;;;;;;1.13;0.60;;;;;;;7.65;100.00;97353.22;6229184;22;20015;-89
2023/12/21 12:20:51;;;;;;;0.90;0.57;;;;;;;7.71;100.00;97336.22;6235764;22;20094;-89
2023/12/21 12:23:19;;;;;;;0.73;0.60;;;;;;;7.73;100.00;97337.78;6244395;22;20343;-88
2023/12/21 12:25:46;;;;;;;1.00;0.70;;;;;;;7.74;100.00;97339.50;6229887;22;20074;-88
2023/12/21 12:28:17;;;;;;;0.60;0.53;;;;;;;7.73;100.00;97327.28;6229360;22;20153;-89
2023/12/21 12:30:47;;;;;;;1.08;0.70;;;;;;;7.75;100.00;97309.66;6230621;22;20102;-90
2023/12/21 12:33:15;;;;;;;0.47;0.47;;;;;;;7.71;100.00;97312.56;6229067;22;20102;-90
2023/12/21 12:35:48;;;;;;;1.10;0.57;;;;;;;7.79;100.00;97297.16;6229574;22;20094;-89
2023/12/21 12:38:18;;;;;;;1.07;0.70;;;;;;;7.83;100.00;97286.38;6254464;22;20094;-89
2023/12/21 12:40:50;;;;;;;0.75;0.57;;;;;;;7.86;100.00;97278.28;6229575;22;20343;-88
2023/12/21 12:43:18;;;;;;;0.38;0.38;;;;;;;7.90;100.00;97277.16;6229620;22;20094;-88
2023/12/21 12:45:45;;;;;;;0.80;0.60;;;;;;;7.92;100.00;97266.56;6229340;22;20444;-88
2023/12/21 12:48:16;;;;;;;0.88;0.50;;;;;;;7.89;100.00;97267.56;6256109;22;20102;-89
2023/12/21 12:50:45;;;;;;;0.90;0.70;;;;;;;7.93;100.00;97249.00;6253706;22;20098;-89
2023/12/21 12:53:16;;;;;;;1.83;1.10;;;;;;;7.95;100.00;97240.06;6228592;22;20510;-92
2023/12/21 12:55:45;;;;;;;0.60;0.60;;;;;;;8.01;100.00;97228.31;6254472;22;20094;-90
2023/12/21 12:58:13;;;;;;;1.13;1.00;;;;;;;7.97;100.00;97200.53;6229817;22;20516;-91
2023/12/21 13:00:41;;;;;;;2.42;2.05;;;;;;;7.99;100.00;97199.50;6227595;22;20098;-90
2023/12/21 13:03:09;;;;;;;1.90;1.00;;;;;;;7.97;100.00;97201.38;6228359;22;20106;-89
2023/12/21 13:05:37;;;;;;;1.55;1.33;;;;;;;8.02;100.00;97187.94;6227945;22;20121;-92
2023/12/21 13:08:05;;;;;;;1.73;1.42;;;;;;;8.02;100.00;97194.03;6228296;22;20019;-90
2023/12/21 13:10:33;;;;;;;1.05;0.98;;;;;;;8.06;100.00;97187.63;6228207;22;20094;-90
2023/12/21 13:13:03;;;;;;;0.73;0.60;;;;;;;8.07;100.00;97172.69;6253025;22;20152;-90
2023/12/21 13:15:31;;;;;;;1.88;0.73;;;;;;;8.08;100.00;97169.16;6228370;22;20413;-89
2023/12/21 13:18:00;;;;;;;0.50;0.50;;;;;;;8.10;100.00;97160.19;6228463;22;20387;-90
2023/12/21 13:20:30;;;;;;;1.10;0.93;;;;;;;8.17;100.00;97161.47;6228492;22;20098;-93
2023/12/21 13:22:59;;;;;;;2.10;0.90;;;;;;;8.14;100.00;97145.88;6253893;22;20094;-91
2023/12/21 13:25:27;;;;;;;0.60;0.60;;;;;;;8.17;100.00;97144.88;6228393;22;20417;-89
2023/12/21 13:27:55;;;;;;;0.60;0.60;;;;;;;8.16;100.00;97130.03;6228486;22;20149;-90
2023/12/21 13:30:42;;;;;;;0.85;0.75;;;;;;;8.21;100.00;97106.88;6260912;22;20148;-91
2023/12/21 13:33:11;;;;;;;0.75;0.70;;;;;;;8.17;100.00;97102.78;6227936;22;20098;-90
2023/12/21 13:35:39;;;;;;;1.25;1.02;;;;;;;8.19;100.00;97114.88;6253747;22;20090;-90
2023/12/21 13:38:06;;;;;;;3.17;1.75;;;;;;;8.23;100.00;97104.16;6227931;22;20102;-90
2023/12/21 13:40:37;;;;;;;2.50;1.65;;;;;;;8.20;100.00;97092.06;6229633;22;20098;-89
2023/12/21 13:43:04;;;;;;;1.63;0.60;;;;;;;8.25;100.00;97091.75;6228040;22;20092;-90
2023/12/21 13:45:32;;;;;;;1.47;1.13;;;;;;;8.21;100.00;97088.47;6228045;22;20408;-91
2023/12/21 13:48:02;;;;;;;1.30;1.20;;;;;;;8.23;100.00;97094.47;6227868;22;20094;-90
2023/12/21 13:50:34;;;;;;;1.23;1.00;;;;;;;8.23;100.00;97107.63;6229644;22;20098;-88
2023/12/21 13:53:02;;;;;;;0.70;0.55;;;;;;;8.19;100.00;97085.13;6229057;22;20019;-89
2023/12/21 13:55:30;;;;;;;0.50;0.50;;;;;;;8.23;100.00;97081.31;6229026;22;20083;-91
2023/12/21 13:57:58;;;;;;;0.60;0.60;;;;;;;8.21;100.00;97077.97;6253613;22;20550;-91
2023/12/21 14:00:25;;;;;;;0.60;0.60;;;;;;;8.23;100.00;97062.91;6228303;22;20506;-89
2023/12/21 14:02:57;;;;;;;0.70;0.70;;;;;;;8.25;100.00;97068.09;6254774;22;20094;-87
2023/12/21 14:05:25;;;;;;;0.40;0.40;;;;;;;8.22;100.00;97063.88;6228764;22;20098;-91
2023/12/21 14:07:56;;;;;;;0.95;0.73;;;;;;;8.19;100.00;97059.66;6228658;22;20087;-90
2023/12/21 14:10:24;;;;;;;0.73;0.50;;;;;;;8.18;100.00;97050.09;6253508;22;20557;-89
2023/12/21 14:12:52;;;;;;;0.60;0.50;;;;;;;8.25;100.00;97042.63;6229880;22;20116;-89
2023/12/21 14:15:25;;;;;;;1.90;0.50;;;;;;;8.26;100.00;97061.88;6232809;22;20102;-90
2023/12/21 14:17:53;;;;;;;0.70;0.52;;;;;;;8.27;100.00;97047.78;6255451;22;20103;-92
2023/12/21 14:20:22;;;;;;;0.95;0.50;;;;;;;8.25;100.00;97089.13;6230555;22;20102;-89
2023/12/21 14:22:50;;;;;;;0.40;0.40;;;;;;;8.27;100.00;97081.97;6231100;22;20366;-90
2023/12/21 14:25:20;;;;;;;0.40;0.40;;;;;;;8.26;100.00;97083.75;6230423;22;20137;-90
2023/12/21 14:27:48;;;;;;;0.30;0.30;;;;;;;8.24;100.00;97092.69;6230693;22;20071;-89
2023/12/21 14:30:16;;;;;;;0.80;0.80;;;;;;;8.24;100.00;97085.66;6229974;22;20082;-90
2023/12/21 14:32:44;;;;;;;0.63;0.50;;;;;;;8.23;100.00;97102.34;6257304;22;20530;-93
2023/12/21 14:35:12;;;;;;;0.35;0.35;;;;;;;8.13;100.00;97101.31;6252815;22;20080;-90
2023/12/21 14:37:40;;;;;;;1.58;0.52;;;;;;;7.99;100.00;97114.53;6229969;22;20090;-91
2023/12/21 14:40:07;;;;;;;3.08;0.63;;;;;;;7.93;100.00;97113.16;6229664;22;20098;-91
2023/12/21 14:42:35;;;;;;;1.67;0.52;;;;;;;7.88;100.00;97107.34;6254604;22;20672;-91
2023/12/21 14:45:03;;;;;;;0.50;0.30;;;;;;;7.79;100.00;97103.56;6229488;22;20098;-90
2023/12/21 14:47:30;;;;;;;4.00;0.80;;;;;;;7.71;100.00;97121.59;6229623;22;20141;-91
2023/12/21 14:49:57;;;;;;;1.40;0.70;;;;;;;7.62;100.00;97122.22;6229168;22;20094;-92
2023/12/21 14:52:25;;;;;;;1.60;0.60;;;;;;;7.63;100.00;97131.75;6228849;22;20138;-92
2023/12/21 14:54:54;;;;;;;3.57;0.73;;;;;;;7.60;100.00;97139.84;6253136;22;20086;-92
2023/12/21 14:57:21;;;;;;;3.33;0.90;;;;;;;7.53;100.00;97152.53;6254515;22;20510;-92
2023/12/21 14:59:49;;;;;;;2.53;1.07;;;;;;;7.51;100.00;97136.03;6253804;22;20098;-93
2023/12/21 15:02:19;;;;;;;2.07;0.97;;;;;;;7.44;100.00;97134.75;6227034;22;20117;-91
2023/12/21 15:04:46;;;;;;;1.60;0.73;;;;;;;7.31;100.00;97134.69;6252810;22;20374;-91
2023/12/21 15:07:14;;;;;;;1.20;0.70;;;;;;;7.31;100.00;97147.81;6228921;22;20498;-92
2023/12/21 15:09:44;;;;;;;2.17;0.80;;;;;;;7.30;100.00;97140.03;6229745;22;20082;-91
2023/12/21 15:12:11;;;;;;;6.77;1.67;;;;;;;7.27;100.00;97164.69;6254171;22;20129;-92
2023/12/21 15:14:38;;;;;;;3.83;0.93;;;;;;;7.23;100.00;97178.97;6228834;22;20091;-92
2023/12/21 15:17:09;;;;;;;2.47;0.80;;;;;;;7.10;100.00;97180.66;6254307;22;20086;-92
2023/12/21 15:19:36;;;;;;;2.03;0.90;;;;;;;7.25;100.00;97189.38;6228320;22;20395;-93
2023/12/21 15:22:03;;;;;;;4.40;1.10;;;;;;;7.21;100.00;97178.19;6253693;22;20094;-92
2023/12/21 15:24:31;;;;;;;3.47;1.13;;;;;;;7.17;100.00;97220.50;6228372;22;20518;-92
